Time;durP1;ratioP1;P1;durP2;ratioP2;P2;SDS_P1;SDS_P2;PMS_P1;PMS_P2;Temp;Humidity;BMP_temperature;BMP_pressure;BME280_temperature;BME280_humidity;BME280_pressure;Samples;Min_cycle;Max_cycle;Signal;HPM_P1;HPM_P2
2022/02/16 00:01:26;;;;;;;9.50;0.60;;;;;;;;;;4950591;29;20772;-65
2022/02/16 00:03:55;;;;;;;8.27;0.70;;;;;;;;;;4918918;29;20056;-65
2022/02/16 00:06:26;;;;;;;8.18;1.02;;;;;;;;;;4918864;29;20068;-65
2022/02/16 00:08:57;;;;;;;7.22;0.88;;;;;;;;;;4950823;29;20519;-65
2022/02/16 00:11:27;;;;;;;12.63;1.00;;;;;;;;;;4969393;28;20058;-65
2022/02/16 00:13:58;;;;;;;9.73;0.75;;;;;;;;;;4969844;28;20403;-65
2022/02/16 00:16:29;;;;;;;10.45;0.60;;;;;;;;;;4969621;28;20054;-65
2022/02/16 00:18:59;;;;;;;6.15;0.73;;;;;;;;;;4990360;28;20054;-65
2022/02/16 00:21:30;;;;;;;5.88;0.65;;;;;;;;;;4988609;28;20055;-65
2022/02/16 00:24:00;;;;;;;6.65;0.93;;;;;;;;;;4921812;28;20491;-65
2022/02/16 00:26:31;;;;;;;10.60;0.68;;;;;;;;;;4969643;28;20186;-65
2022/02/16 00:29:01;;;;;;;8.30;0.90;;;;;;;;;;4969511;28;20059;-65
2022/02/16 00:31:32;;;;;;;6.60;0.75;;;;;;;;;;4969433;28;20411;-65
2022/02/16 00:34:05;;;;;;;8.82;1.00;;;;;;;;;;4967399;28;20178;-65
2022/02/16 00:36:36;;;;;;;8.68;0.70;;;;;;;;;;4986244;28;20503;-65
2022/02/16 00:39:06;;;;;;;4.82;0.70;;;;;;;;;;4988641;28;20062;-65
2022/02/16 00:41:36;;;;;;;16.38;1.33;;;;;;;;;;4949642;28;20554;-65
2022/02/16 00:44:07;;;;;;;7.07;0.70;;;;;;;;;;4902420;29;20063;-65
2022/02/16 00:46:38;;;;;;;8.98;0.70;;;;;;;;;;4911399;29;20509;-65
2022/02/16 00:49:09;;;;;;;8.73;0.70;;;;;;;;;;4902067;29;20417;-65
2022/02/16 00:51:39;;;;;;;14.73;1.67;;;;;;;;;;4892753;29;20079;-65
2022/02/16 00:54:09;;;;;;;10.93;1.20;;;;;;;;;;4911846;29;20064;-65
2022/02/16 00:56:42;;;;;;;6.72;0.68;;;;;;;;;;4911509;29;20521;-65
2022/02/16 00:59:16;;;;;;;8.68;0.77;;;;;;;;;;4871907;29;20060;-65
2022/02/16 01:01:50;;;;;;;3.47;1.00;;;;;;;;;;4847505;29;20423;-65
2022/02/16 01:04:21;;;;;;;11.23;0.90;;;;;;;;;;4856183;29;20102;-65
2022/02/16 01:06:55;;;;;;;5.50;0.70;;;;;;;;;;4873752;29;20482;-65
2022/02/16 01:09:27;;;;;;;11.95;0.93;;;;;;;;;;4843067;29;20057;-65
2022/02/16 01:11:57;;;;;;;10.07;1.02;;;;;;;;;;4876939;29;20061;-65
2022/02/16 01:14:33;;;;;;;8.35;0.70;;;;;;;;;;4858778;29;20080;-65
2022/02/16 01:17:16;;;;;;;8.15;0.95;;;;;;;;;;4809351;29;20057;-65
2022/02/16 01:20:07;;;;;;;4.57;0.73;;;;;;;;;;4858321;29;20050;-65
2022/02/16 01:22:39;;;;;;;10.98;0.90;;;;;;;;;;4858586;29;20053;-65
2022/02/16 01:25:14;;;;;;;8.68;0.95;;;;;;;;;;4854430;29;20412;-65
2022/02/16 01:27:45;;;;;;;8.82;0.82;;;;;;;;;;4855611;29;20050;-65
2022/02/16 01:30:18;;;;;;;4.50;0.85;;;;;;;;;;4858365;29;20438;-65
2022/02/16 01:33:11;;;;;;;8.75;1.10;;;;;;;;;;4840656;29;20057;-65
2022/02/16 01:35:49;;;;;;;10.93;1.65;;;;;;;;;;4838914;29;20054;-65
2022/02/16 01:38:20;;;;;;;3.72;1.20;;;;;;;;;;4821576;29;20057;-65
2022/02/16 01:41:17;;;;;;;10.27;0.88;;;;;;;;;;4839897;29;20072;-65
2022/02/16 01:44:00;;;;;;;10.15;1.30;;;;;;;;;;4835262;29;20059;-65
2022/02/16 01:46:33;;;;;;;6.55;0.55;;;;;;;;;;4830196;29;20127;-65
2022/02/16 01:49:03;;;;;;;5.53;0.65;;;;;;;;;;4803456;29;20065;-65
2022/02/16 01:51:36;;;;;;;7.82;0.93;;;;;;;;;;4811623;29;20070;-65
2022/02/16 01:54:09;;;;;;;7.40;0.75;;;;;;;;;;4821454;29;20062;-65
2022/02/16 01:56:47;;;;;;;7.28;0.85;;;;;;;;;;4821673;29;20538;-65
2022/02/16 01:59:21;;;;;;;11.65;1.10;;;;;;;;;;4785108;29;20386;-65
2022/02/16 02:02:27;;;;;;;8.38;1.33;;;;;;;;;;4797814;29;20545;-65
2022/02/16 02:05:11;;;;;;;11.52;1.00;;;;;;;;;;4802929;29;20058;-65
2022/02/16 02:07:41;;;;;;;8.27;0.75;;;;;;;;;;4806931;29;20062;-65
2022/02/16 02:10:12;;;;;;;8.93;0.98;;;;;;;;;;4802518;29;20051;-65
2022/02/16 02:12:45;;;;;;;7.28;1.05;;;;;;;;;;4788362;29;20063;-65
2022/02/16 02:15:23;;;;;;;7.38;0.93;;;;;;;;;;4796756;29;20061;-65
2022/02/16 02:18:04;;;;;;;9.23;0.90;;;;;;;;;;4802721;29;20065;-65
2022/02/16 02:20:40;;;;;;;4.53;0.98;;;;;;;;;;4784365;29;20067;-65
2022/02/16 02:23:12;;;;;;;8.35;1.13;;;;;;;;;;4765270;30;20055;-65
2022/02/16 02:25:47;;;;;;;10.73;1.00;;;;;;;;;;4710373;30;20068;-65
2022/02/16 02:28:23;;;;;;;4.35;0.98;;;;;;;;;;4731507;30;20073;-65
2022/02/16 02:30:57;;;;;;;9.80;1.30;;;;;;;;;;4728651;30;20435;-65
2022/02/16 02:33:29;;;;;;;10.02;1.02;;;;;;;;;;4713736;30;20052;-65
2022/02/16 02:36:00;;;;;;;7.70;1.08;;;;;;;;;;4725894;30;20060;-65
2022/02/16 02:38:30;;;;;;;8.90;0.98;;;;;;;;;;4749233;30;20056;-65
2022/02/16 02:41:04;;;;;;;9.05;1.17;;;;;;;;;;4778163;29;20067;-65
2022/02/16 02:43:42;;;;;;;12.80;1.40;;;;;;;;;;4784265;29;20058;-65
2022/02/16 02:46:13;;;;;;;8.95;1.02;;;;;;;;;;4784400;29;20059;-65
2022/02/16 02:48:50;;;;;;;8.02;0.85;;;;;;;;;;4800781;29;20071;-65
2022/02/16 02:51:22;;;;;;;4.10;0.95;;;;;;;;;;4820372;29;20046;-65
2022/02/16 02:53:54;;;;;;;8.77;1.15;;;;;;;;;;4820595;29;20065;-65
2022/02/16 02:56:34;;;;;;;6.20;1.10;;;;;;;;;;4869419;29;20065;-65
2022/02/16 02:59:05;;;;;;;8.63;1.10;;;;;;;;;;4857042;29;20068;-65
2022/02/16 03:01:35;;;;;;;4.43;1.20;;;;;;;;;;4861044;29;20050;-65
2022/02/16 03:04:06;;;;;;;9.75;1.30;;;;;;;;;;4810358;29;20071;-65
2022/02/16 03:06:38;;;;;;;5.75;1.00;;;;;;;;;;4856642;29;20057;-65
2022/02/16 03:09:09;;;;;;;7.50;1.30;;;;;;;;;;4888453;29;20501;-65
2022/02/16 03:11:40;;;;;;;5.05;1.17;;;;;;;;;;4907699;29;20763;-65
2022/02/16 03:14:10;;;;;;;6.47;1.13;;;;;;;;;;4912403;29;20068;-65
2022/02/16 03:16:41;;;;;;;2.80;1.02;;;;;;;;;;4912695;29;20082;-65
2022/02/16 03:19:12;;;;;;;7.72;0.93;;;;;;;;;;4867435;29;20081;-65
2022/02/16 03:21:43;;;;;;;3.88;0.80;;;;;;;;;;4850274;29;20065;-65
2022/02/16 03:24:13;;;;;;;6.95;0.90;;;;;;;;;;4856497;29;20057;-65
2022/02/16 03:26:43;;;;;;;6.93;0.80;;;;;;;;;;4856548;29;20102;-64
2022/02/16 03:29:16;;;;;;;8.13;0.90;;;;;;;;;;4856609;29;20060;-65
2022/02/16 03:31:54;;;;;;;4.40;0.80;;;;;;;;;;4809621;29;20058;-64
2022/02/16 03:34:24;;;;;;;6.40;0.90;;;;;;;;;;4837366;29;20073;-65
2022/02/16 03:36:54;;;;;;;7.20;1.13;;;;;;;;;;4861848;29;20074;-65
2022/02/16 03:39:25;;;;;;;7.30;1.10;;;;;;;;;;4801477;29;20065;-65
2022/02/16 03:41:55;;;;;;;5.13;0.98;;;;;;;;;;4819235;29;20054;-65
2022/02/16 03:44:26;;;;;;;6.40;1.20;;;;;;;;;;4852898;29;20057;-65
2022/02/16 03:47:01;;;;;;;5.32;0.68;;;;;;;;;;4835420;29;20062;-64
2022/02/16 03:49:32;;;;;;;4.18;0.82;;;;;;;;;;4827216;29;20062;-65
2022/02/16 03:52:03;;;;;;;12.00;2.67;;;;;;;;;;4837671;29;20431;-65
2022/02/16 03:54:33;;;;;;;8.98;0.95;;;;;;;;;;4822271;29;20054;-64
2022/02/16 03:57:05;;;;;;;;;;;;;;;;;;4827507;29;20054;-65
2022/02/16 03:59:35;;;;;;;7.25;0.80;;;;;;;;;;4833086;29;19939;-64
2022/02/16 04:02:24;;;;;;;2.72;0.70;;;;;;;;;;4841573;29;20064;-64
2022/02/16 04:04:55;;;;;;;7.15;0.75;;;;;;;;;;4822965;29;20049;-65
2022/02/16 04:07:26;;;;;;;8.25;0.90;;;;;;;;;;4837717;29;20515;-65
2022/02/16 04:09:56;;;;;;;5.70;0.70;;;;;;;;;;4789045;29;20531;-65
2022/02/16 04:12:27;;;;;;;6.88;1.05;;;;;;;;;;4819456;29;20061;-65
2022/02/16 04:14:57;;;;;;;7.25;1.05;;;;;;;;;;4830999;29;20058;-65
2022/02/16 04:17:28;;;;;;;6.95;1.02;;;;;;;;;;4821829;29;20054;-65
2022/02/16 04:20:02;;;;;;;7.72;1.30;;;;;;;;;;4794615;29;20059;-65
2022/02/16 04:22:39;;;;;;;5.50;1.10;;;;;;;;;;4806630;29;20070;-65
2022/02/16 04:25:11;;;;;;;6.10;1.05;;;;;;;;;;4819027;29;20059;-64
2022/02/16 04:27:41;;;;;;;10.02;1.05;;;;;;;;;;4819478;29;20061;-65
2022/02/16 04:30:12;;;;;;;8.65;1.23;;;;;;;;;;4793267;29;20059;-64
2022/02/16 04:32:43;;;;;;;6.30;1.02;;;;;;;;;;4818128;29;20528;-65
2022/02/16 04:35:14;;;;;;;9.38;1.05;;;;;;;;;;4806066;29;20054;-65
2022/02/16 04:37:45;;;;;;;4.18;1.05;;;;;;;;;;4837352;29;20053;-65
2022/02/16 04:40:16;;;;;;;7.00;1.35;;;;;;;;;;4837326;29;20499;-65
2022/02/16 04:42:46;;;;;;;8.45;1.15;;;;;;;;;;4814962;29;20064;-65
2022/02/16 04:45:18;;;;;;;5.80;0.93;;;;;;;;;;4843622;29;20054;-65
2022/02/16 04:47:48;;;;;;;20.05;1.50;;;;;;;;;;4859366;29;20550;-64
2022/02/16 04:50:19;;;;;;;4.35;1.10;;;;;;;;;;4869871;29;20063;-65
2022/02/16 04:52:54;;;;;;;3.58;1.33;;;;;;;;;;4848420;29;20061;-65
2022/02/16 04:55:33;;;;;;;5.55;1.08;;;;;;;;;;4855966;29;20066;-65
2022/02/16 04:58:09;;;;;;;4.95;1.20;;;;;;;;;;4846543;29;20073;-65
2022/02/16 05:00:39;;;;;;;6.20;0.75;;;;;;;;;;4828371;29;20054;-65
2022/02/16 05:03:22;;;;;;;8.82;1.17;;;;;;;;;;4827323;29;20054;-65
2022/02/16 05:05:55;;;;;;;5.75;1.20;;;;;;;;;;4822190;29;20062;-65
2022/02/16 05:08:26;;;;;;;4.18;1.20;;;;;;;;;;4840428;29;20050;-65
2022/02/16 05:10:57;;;;;;;5.53;1.40;;;;;;;;;;4858873;29;20068;-65
2022/02/16 05:13:48;;;;;;;4.95;1.38;;;;;;;;;;4842271;29;20057;-65
2022/02/16 05:16:19;;;;;;;12.38;1.75;;;;;;;;;;4848584;29;20073;-65
2022/02/16 05:18:49;;;;;;;7.30;1.40;;;;;;;;;;4840325;29;20392;-65
2022/02/16 05:21:20;;;;;;;5.90;1.88;;;;;;;;;;4840259;29;20054;-65
2022/02/16 05:23:50;;;;;;;4.18;1.40;;;;;;;;;;4833748;29;20050;-65
2022/02/16 05:26:21;;;;;;;6.95;1.40;;;;;;;;;;4859627;29;20055;-65
2022/02/16 05:28:51;;;;;;;4.72;1.88;;;;;;;;;;4854787;29;20080;-65
2022/02/16 05:31:22;;;;;;;10.05;1.88;;;;;;;;;;4792445;29;20428;-65
2022/02/16 05:33:53;;;;;;;6.55;1.33;;;;;;;;;;4835982;29;20065;-65
2022/02/16 05:36:25;;;;;;;3.83;1.20;;;;;;;;;;4848909;29;20058;-65
2022/02/16 05:38:55;;;;;;;9.63;1.27;;;;;;;;;;4839974;29;20081;-65
2022/02/16 05:41:27;;;;;;;5.18;1.33;;;;;;;;;;4839804;29;20066;-65
2022/02/16 05:44:04;;;;;;;5.35;1.50;;;;;;;;;;4839642;29;20065;-65
2022/02/16 05:46:36;;;;;;;5.60;1.30;;;;;;;;;;4839723;29;20050;-65
2022/02/16 05:49:08;;;;;;;8.73;1.70;;;;;;;;;;4798957;29;20527;-65
2022/02/16 05:51:39;;;;;;;4.40;1.10;;;;;;;;;;4833571;29;20058;-65
2022/02/16 05:54:11;;;;;;;4.90;1.52;;;;;;;;;;4837743;29;20051;-65
2022/02/16 05:56:42;;;;;;;7.63;2.20;;;;;;;;;;4821044;29;20050;-64
2022/02/16 05:59:16;;;;;;;5.35;1.55;;;;;;;;;;4857690;29;20049;-65
2022/02/16 06:01:49;;;;;;;9.23;2.28;;;;;;;;;;4857722;29;20058;-65
2022/02/16 06:04:22;;;;;;;8.40;2.65;;;;;;;;;;4857842;29;20067;-65
2022/02/16 06:06:54;;;;;;;8.57;2.72;;;;;;;;;;4827107;29;20064;-65
2022/02/16 06:09:25;;;;;;;8.70;2.70;;;;;;;;;;4857799;29;20072;-65
2022/02/16 06:11:55;;;;;;;3.78;2.13;;;;;;;;;;4857267;29;20069;-65
2022/02/16 06:14:28;;;;;;;4.60;1.45;;;;;;;;;;4857572;29;20058;-65
2022/02/16 06:17:11;;;;;;;5.38;1.58;;;;;;;;;;4857657;29;20053;-65
2022/02/16 06:19:44;;;;;;;6.78;1.50;;;;;;;;;;4875765;29;20061;-65
2022/02/16 06:22:14;;;;;;;10.38;1.48;;;;;;;;;;4831436;29;20054;-65
2022/02/16 06:24:45;;;;;;;7.07;1.70;;;;;;;;;;4833482;29;20061;-65
2022/02/16 06:27:16;;;;;;;5.15;1.60;;;;;;;;;;4786891;29;20059;-65
2022/02/16 06:29:46;;;;;;;7.55;1.77;;;;;;;;;;4814823;29;20055;-65
2022/02/16 06:32:25;;;;;;;7.47;1.98;;;;;;;;;;4801966;29;20131;-65
2022/02/16 06:34:57;;;;;;;4.22;1.30;;;;;;;;;;4802690;29;20075;-65
2022/02/16 06:37:29;;;;;;;4.82;1.17;;;;;;;;;;4786282;29;20059;-65
2022/02/16 06:40:00;;;;;;;5.45;1.20;;;;;;;;;;4796910;29;20055;-65
2022/02/16 06:42:37;;;;;;;4.78;1.70;;;;;;;;;;4823284;29;20052;-65
2022/02/16 06:45:09;;;;;;;3.95;1.63;;;;;;;;;;4856722;29;20058;-65
2022/02/16 06:47:44;;;;;;;3.97;1.42;;;;;;;;;;4857062;29;20054;-66
2022/02/16 06:50:16;;;;;;;3.28;1.60;;;;;;;;;;4832613;29;20050;-65
2022/02/16 06:52:57;;;;;;;7.10;2.20;;;;;;;;;;4828073;29;20046;-65
2022/02/16 06:55:28;;;;;;;6.57;2.47;;;;;;;;;;4838667;29;20081;-65
2022/02/16 06:58:01;;;;;;;5.80;1.63;;;;;;;;;;4834783;29;20522;-65
2022/02/16 07:00:31;;;;;;;4.85;1.42;;;;;;;;;;4802035;29;20146;-65
2022/02/16 07:03:03;;;;;;;6.25;1.58;;;;;;;;;;4795906;29;20428;-65
2022/02/16 07:06:02;;;;;;;5.03;1.48;;;;;;;;;;4831207;29;20054;-65
2022/02/16 07:08:33;;;;;;;9.30;1.60;;;;;;;;;;4856388;29;20052;-65
2022/02/16 07:11:03;;;;;;;5.90;1.65;;;;;;;;;;4807688;29;20053;-65
2022/02/16 07:13:35;;;;;;;4.05;1.40;;;;;;;;;;4823752;29;20061;-65
2022/02/16 07:16:06;;;;;;;8.02;1.98;;;;;;;;;;4772712;29;20405;-65
2022/02/16 07:18:39;;;;;;;5.90;1.30;;;;;;;;;;4735612;30;20068;-65
2022/02/16 07:21:23;;;;;;;5.53;1.20;;;;;;;;;;4786342;29;20052;-65
2022/02/16 07:23:54;;;;;;;;;;;;;;;;;;4781399;29;20058;-65
2022/02/16 07:26:26;;;;;;;5.90;1.30;;;;;;;;;;4767615;30;19934;-65
2022/02/16 07:28:58;;;;;;;4.00;1.40;;;;;;;;;;4802789;29;20066;-65
2022/02/16 07:31:30;;;;;;;4.82;1.38;;;;;;;;;;4837677;29;20058;-65
2022/02/16 07:34:01;;;;;;;6.50;1.33;;;;;;;;;;4819639;29;20055;-65
2022/02/16 07:36:32;;;;;;;4.93;1.35;;;;;;;;;;4792869;29;20105;-64
2022/02/16 07:39:03;;;;;;;5.03;1.77;;;;;;;;;;4819665;29;20418;-64
2022/02/16 07:41:34;;;;;;;5.25;1.65;;;;;;;;;;4831284;29;20050;-64
2022/02/16 07:44:30;;;;;;;7.13;1.80;;;;;;;;;;4838442;29;20210;-64
2022/02/16 07:47:09;;;;;;;8.38;1.90;;;;;;;;;;4822609;29;20552;-64
2022/02/16 07:49:41;;;;;;;7.20;1.73;;;;;;;;;;4803517;29;20055;-64
2022/02/16 07:52:33;;;;;;;8.07;1.83;;;;;;;;;;4793571;29;20055;-64
2022/02/16 07:55:26;;;;;;;9.18;2.60;;;;;;;;;;4893792;29;20080;-65
2022/02/16 07:58:01;;;;;;;5.30;2.00;;;;;;;;;;4893591;29;20064;-65
2022/02/16 08:00:35;;;;;;;5.28;1.70;;;;;;;;;;4873058;29;20056;-65
2022/02/16 08:03:19;;;;;;;9.25;1.90;;;;;;;;;;4871652;29;20062;-65
2022/02/16 08:05:51;;;;;;;5.53;2.00;;;;;;;;;;4852178;29;20053;-65
2022/02/16 08:08:24;;;;;;;7.80;2.13;;;;;;;;;;4853050;29;20515;-65
2022/02/16 08:10:54;;;;;;;9.10;1.60;;;;;;;;;;4855653;29;20064;-65
2022/02/16 08:13:25;;;;;;;9.98;2.35;;;;;;;;;;4825600;29;20510;-65
2022/02/16 08:16:15;;;;;;;6.85;2.30;;;;;;;;;;4850819;29;20054;-65
2022/02/16 08:19:08;;;;;;;10.32;2.55;;;;;;;;;;4830153;29;20054;-65
2022/02/16 08:21:42;;;;;;;8.80;2.47;;;;;;;;;;4841339;29;20054;-65
2022/02/16 08:24:14;;;;;;;6.50;2.38;;;;;;;;;;4840992;29;20068;-64
2022/02/16 08:26:47;;;;;;;8.82;2.80;;;;;;;;;;4846356;29;20534;-64
2022/02/16 08:29:20;;;;;;;7.43;2.60;;;;;;;;;;4859550;29;20530;-65
2022/02/16 08:32:01;;;;;;;7.25;2.22;;;;;;;;;;4882454;29;20048;-65
2022/02/16 08:34:45;;;;;;;7.60;2.30;;;;;;;;;;4896606;29;20048;-65
2022/02/16 08:37:20;;;;;;;6.28;1.75;;;;;;;;;;4884968;29;20048;-65
2022/02/16 08:39:51;;;;;;;4.85;1.92;;;;;;;;;;4878224;29;20061;-65
2022/02/16 08:42:21;;;;;;;5.40;2.33;;;;;;;;;;4878195;29;20414;-65
2022/02/16 08:44:51;;;;;;;10.07;2.78;;;;;;;;;;4878264;29;20426;-64
2022/02/16 08:47:22;;;;;;;8.18;3.47;;;;;;;;;;4878042;29;20188;-65
2022/02/16 08:49:53;;;;;;;15.13;3.22;;;;;;;;;;4878074;29;20071;-65
2022/02/16 08:52:25;;;;;;;9.23;3.20;;;;;;;;;;4878156;29;20421;-65
2022/02/16 08:54:55;;;;;;;8.30;3.30;;;;;;;;;;4847097;29;20061;-65
2022/02/16 08:57:25;;;;;;;9.85;2.88;;;;;;;;;;4878256;29;20724;-65
2022/02/16 08:59:55;;;;;;;8.98;2.83;;;;;;;;;;4865400;29;20161;-65
2022/02/16 09:02:25;;;;;;;8.75;3.00;;;;;;;;;;4896650;29;20064;-65
2022/02/16 09:04:56;;;;;;;7.90;3.33;;;;;;;;;;4879070;29;20056;-64
2022/02/16 09:07:30;;;;;;;7.95;3.40;;;;;;;;;;4900301;29;20060;-64
2022/02/16 09:10:04;;;;;;;10.35;3.63;;;;;;;;;;4926860;29;20056;-64
2022/02/16 09:12:36;;;;;;;6.97;3.10;;;;;;;;;;4877339;29;20060;-64
2022/02/16 09:15:07;;;;;;;10.05;3.85;;;;;;;;;;4877450;29;20060;-64
2022/02/16 09:17:38;;;;;;;8.18;2.88;;;;;;;;;;4898859;29;20056;-64
2022/02/16 09:20:09;;;;;;;12.45;3.45;;;;;;;;;;4899693;29;20060;-64
2022/02/16 09:22:40;;;;;;;8.73;3.92;;;;;;;;;;4915216;29;20052;-64
2022/02/16 09:25:11;;;;;;;12.18;3.97;;;;;;;;;;4915063;29;20060;-64
2022/02/16 09:27:42;;;;;;;10.80;4.88;;;;;;;;;;4915081;29;20060;-64
2022/02/16 09:30:12;;;;;;;9.90;3.83;;;;;;;;;;4899172;29;20071;-64
2022/02/16 09:32:43;;;;;;;16.83;5.32;;;;;;;;;;4914190;29;20060;-64
2022/02/16 09:35:13;;;;;;;14.40;5.70;;;;;;;;;;4914559;29;20394;-64
2022/02/16 09:37:44;;;;;;;16.08;5.57;;;;;;;;;;4914863;29;20067;-64
2022/02/16 09:40:15;;;;;;;16.35;4.85;;;;;;;;;;4914769;29;20426;-64
2022/02/16 09:42:46;;;;;;;13.65;4.78;;;;;;;;;;4916531;29;20059;-64
2022/02/16 09:45:17;;;;;;;13.73;4.13;;;;;;;;;;4886568;29;20071;-64
2022/02/16 09:47:47;;;;;;;9.77;4.07;;;;;;;;;;4955285;28;20122;-64
2022/02/16 09:50:17;;;;;;;12.88;4.22;;;;;;;;;;4977652;28;20085;-64
2022/02/16 09:52:48;;;;;;;15.15;4.30;;;;;;;;;;5013551;28;20490;-64
2022/02/16 09:55:19;;;;;;;13.55;3.83;;;;;;;;;;4996397;28;20068;-64
2022/02/16 09:57:50;;;;;;;8.65;3.20;;;;;;;;;;5013475;28;20057;-64
2022/02/16 10:00:20;;;;;;;11.05;3.00;;;;;;;;;;5013212;28;20635;-64
2022/02/16 10:02:51;;;;;;;11.63;4.10;;;;;;;;;;5013122;28;20045;-64
2022/02/16 10:05:21;;;;;;;15.23;3.83;;;;;;;;;;4978522;28;20129;-64
2022/02/16 10:07:51;;;;;;;10.85;4.13;;;;;;;;;;4931730;28;20061;-64
2022/02/16 10:10:24;;;;;;;10.73;4.05;;;;;;;;;;5013004;28;20050;-65
2022/02/16 10:12:57;;;;;;;11.70;3.55;;;;;;;;;;5013056;28;20045;-64
2022/02/16 10:15:36;;;;;;;13.40;3.35;;;;;;;;;;4971337;28;20057;-65
2022/02/16 10:18:18;;;;;;;6.93;2.65;;;;;;;;;;4955465;28;20059;-65
2022/02/16 10:20:50;;;;;;;10.95;3.03;;;;;;;;;;4917038;29;20405;-65
2022/02/16 10:23:43;;;;;;;13.27;2.97;;;;;;;;;;4864236;29;20573;-65
2022/02/16 10:26:14;;;;;;;21.17;3.55;;;;;;;;;;4879382;29;20053;-65
2022/02/16 10:28:48;;;;;;;9.45;3.05;;;;;;;;;;4895183;29;20060;-65
2022/02/16 10:31:21;;;;;;;9.93;2.58;;;;;;;;;;4895098;29;20056;-65
2022/02/16 10:33:55;;;;;;;9.32;3.38;;;;;;;;;;4894777;29;20061;-65
2022/02/16 10:36:30;;;;;;;17.25;3.70;;;;;;;;;;4848235;29;20052;-65
2022/02/16 10:39:10;;;;;;;8.15;3.28;;;;;;;;;;4894897;29;20532;-65
2022/02/16 10:41:49;;;;;;;9.85;3.17;;;;;;;;;;4864361;29;20063;-65
2022/02/16 10:44:29;;;;;;;9.07;3.03;;;;;;;;;;4848332;29;20072;-65
2022/02/16 10:47:11;;;;;;;12.43;4.20;;;;;;;;;;4894732;29;20060;-65
2022/02/16 10:49:47;;;;;;;9.15;4.03;;;;;;;;;;4879558;29;20056;-65
2022/02/16 10:52:22;;;;;;;12.38;3.40;;;;;;;;;;4851958;29;20413;-65
2022/02/16 10:55:00;;;;;;;10.23;3.50;;;;;;;;;;4920946;29;20459;-65
2022/02/16 10:57:30;;;;;;;14.18;3.25;;;;;;;;;;4898817;29;20053;-65
2022/02/16 11:00:03;;;;;;;11.25;3.58;;;;;;;;;;4848351;29;20052;-65
2022/02/16 11:02:35;;;;;;;9.75;3.08;;;;;;;;;;4894376;29;20060;-66
2022/02/16 11:05:06;;;;;;;10.52;3.33;;;;;;;;;;4894573;29;20184;-65
2022/02/16 11:07:37;;;;;;;9.48;3.55;;;;;;;;;;4894344;29;20644;-65
2022/02/16 11:10:08;;;;;;;13.25;3.42;;;;;;;;;;4894299;29;20125;-65
2022/02/16 11:12:39;;;;;;;12.10;3.47;;;;;;;;;;4894328;29;20092;-65
2022/02/16 11:15:10;;;;;;;12.70;3.80;;;;;;;;;;4894255;29;20076;-65
2022/02/16 11:17:40;;;;;;;13.90;3.15;;;;;;;;;;4894199;29;20624;-65
2022/02/16 11:20:25;;;;;;;14.15;3.78;;;;;;;;;;4894184;29;20110;-65
2022/02/16 11:23:01;;;;;;;10.32;3.90;;;;;;;;;;4908785;29;20053;-64
2022/02/16 11:25:43;;;;;;;13.30;3.75;;;;;;;;;;4893789;29;20588;-64
2022/02/16 11:28:13;;;;;;;13.65;4.32;;;;;;;;;;4919108;29;20061;-65
2022/02/16 11:30:47;;;;;;;15.60;3.97;;;;;;;;;;4931751;29;20051;-65
2022/02/16 11:33:19;;;;;;;11.23;3.88;;;;;;;;;;4922961;29;20055;-64
2022/02/16 11:35:57;;;;;;;12.55;4.53;;;;;;;;;;4939674;29;20055;-65
2022/02/16 11:38:43;;;;;;;19.60;4.50;;;;;;;;;;4982812;28;20150;-64
2022/02/16 11:41:29;;;;;;;14.48;4.47;;;;;;;;;;4989479;28;20503;-65
2022/02/16 11:44:02;;;;;;;11.25;3.40;;;;;;;;;;4989887;28;20521;-66
2022/02/16 11:46:48;;;;;;;12.05;3.90;;;;;;;;;;4950615;28;20047;-65
2022/02/16 11:49:30;;;;;;;12.65;3.90;;;;;;;;;;4950825;28;20044;-65
2022/02/16 11:52:21;;;;;;;8.35;3.45;;;;;;;;;;4950978;28;20503;-66
2022/02/16 11:54:55;;;;;;;9.23;4.05;;;;;;;;;;4949897;28;20523;-65
2022/02/16 11:57:44;;;;;;;7.10;3.72;;;;;;;;;;4935561;28;20047;-66
2022/02/16 12:00:18;;;;;;;8.48;3.53;;;;;;;;;;4950646;28;20059;-67
2022/02/16 12:02:59;;;;;;;8.48;3.70;;;;;;;;;;4950810;28;20043;-65
2022/02/16 12:05:51;;;;;;;7.50;3.25;;;;;;;;;;4919413;29;20053;-65
2022/02/16 12:08:29;;;;;;;8.40;3.50;;;;;;;;;;4903463;29;20055;-65
2022/02/16 12:11:06;;;;;;;7.07;3.05;;;;;;;;;;4912198;29;20095;-65
2022/02/16 12:13:42;;;;;;;8.07;4.70;;;;;;;;;;4912534;29;20056;-65
2022/02/16 12:16:16;;;;;;;6.38;3.47;;;;;;;;;;4912301;29;20060;-65
2022/02/16 12:18:49;;;;;;;13.43;3.05;;;;;;;;;;4916688;29;20059;-65
2022/02/16 12:21:28;;;;;;;6.47;3.38;;;;;;;;;;4950501;29;20043;-65
2022/02/16 12:24:11;;;;;;;7.85;3.38;;;;;;;;;;4919628;29;20499;-65
2022/02/16 12:26:47;;;;;;;5.78;3.30;;;;;;;;;;4950403;29;20528;-65
2022/02/16 12:29:20;;;;;;;6.05;3.40;;;;;;;;;;4934949;29;20058;-65
2022/02/16 12:31:58;;;;;;;10.93;3.63;;;;;;;;;;4950172;29;20054;-65
2022/02/16 12:34:32;;;;;;;5.82;3.30;;;;;;;;;;4950433;29;20067;-65
2022/02/16 12:37:13;;;;;;;4.28;3.03;;;;;;;;;;4911779;29;20087;-65
2022/02/16 12:39:58;;;;;;;9.00;3.20;;;;;;;;;;4912294;29;20093;-66
2022/02/16 12:42:44;;;;;;;7.13;3.50;;;;;;;;;;4896761;29;20394;-66
2022/02/16 12:45:25;;;;;;;120.63;65.85;;;;;;;;;;4911997;29;20056;-66
2022/02/16 12:47:58;;;;;;;46.00;24.73;;;;;;;;;;4858456;29;20412;-66
2022/02/16 12:50:30;;;;;;;17.52;6.15;;;;;;;;;;4932922;29;20051;-66
2022/02/16 12:53:04;;;;;;;10.40;5.25;;;;;;;;;;4949787;29;20508;-66
2022/02/16 12:55:47;;;;;;;5.95;3.45;;;;;;;;;;4949912;29;20062;-66
2022/02/16 12:58:18;;;;;;;6.75;3.50;;;;;;;;;;4950195;29;20051;-66
2022/02/16 13:00:52;;;;;;;8.55;3.42;;;;;;;;;;4950500;29;20055;-65
2022/02/16 13:03:26;;;;;;;7.25;3.40;;;;;;;;;;4934095;29;20063;-65
2022/02/16 13:05:57;;;;;;;6.28;3.22;;;;;;;;;;4935985;29;20062;-65
2022/02/16 13:08:28;;;;;;;7.50;3.25;;;;;;;;;;4954857;28;20067;-64
2022/02/16 13:11:03;;;;;;;6.60;2.58;;;;;;;;;;4973208;28;20050;-68
2022/02/16 13:13:35;;;;;;;5.78;3.20;;;;;;;;;;4973293;28;20423;-65
2022/02/16 13:16:06;;;;;;;5.07;2.85;;;;;;;;;;4992162;28;20051;-66
2022/02/16 13:18:43;;;;;;;5.13;3.05;;;;;;;;;;4992086;28;20422;-67
2022/02/16 13:21:15;;;;;;;6.97;2.90;;;;;;;;;;4953179;29;20054;-67
2022/02/16 13:23:46;;;;;;;8.10;3.05;;;;;;;;;;4953492;29;20055;-66
2022/02/16 13:26:18;;;;;;;5.78;3.10;;;;;;;;;;4921499;29;20439;-66
2022/02/16 13:28:49;;;;;;;5.97;3.05;;;;;;;;;;4953048;29;20107;-66
2022/02/16 13:31:28;;;;;;;8.90;3.10;;;;;;;;;;4948609;28;20051;-68
2022/02/16 13:34:11;;;;;;;5.30;2.97;;;;;;;;;;4952965;28;20098;-69
2022/02/16 13:36:43;;;;;;;6.25;3.33;;;;;;;;;;4905576;29;20078;-67
2022/02/16 13:39:22;;;;;;;5.28;3.22;;;;;;;;;;4953190;28;20081;-66
2022/02/16 13:42:04;;;;;;;8.00;3.33;;;;;;;;;;4952966;28;20062;-66
2022/02/16 13:44:37;;;;;;;5.65;3.03;;;;;;;;;;4917998;29;20052;-66
2022/02/16 13:47:21;;;;;;;6.40;2.70;;;;;;;;;;4902337;29;20075;-67
2022/02/16 13:49:56;;;;;;;4.57;2.83;;;;;;;;;;4933791;29;20067;-66
2022/02/16 13:52:35;;;;;;;5.35;3.00;;;;;;;;;;4918678;29;20056;-66
2022/02/16 13:55:05;;;;;;;5.70;2.78;;;;;;;;;;4933162;29;20052;-67
2022/02/16 13:57:37;;;;;;;5.15;2.83;;;;;;;;;;4933691;29;20047;-68
2022/02/16 14:00:10;;;;;;;5.88;2.53;;;;;;;;;;4936572;29;20059;-67
2022/02/16 14:02:44;;;;;;;4.88;2.75;;;;;;;;;;4953111;28;20059;-66
2022/02/16 14:05:15;;;;;;;7.10;2.47;;;;;;;;;;4920898;29;20059;-66
2022/02/16 14:08:06;;;;;;;7.18;2.70;;;;;;;;;;4957885;28;20069;-68
2022/02/16 14:10:38;;;;;;;8.27;2.95;;;;;;;;;;4975208;28;20082;-66
2022/02/16 14:13:09;;;;;;;8.05;3.28;;;;;;;;;;4975271;28;20062;-68
2022/02/16 14:15:40;;;;;;;7.32;2.90;;;;;;;;;;4991019;28;20053;-68
2022/02/16 14:18:11;;;;;;;5.13;2.95;;;;;;;;;;4990631;28;20055;-67
2022/02/16 14:20:41;;;;;;;4.78;2.70;;;;;;;;;;4991276;28;20054;-68
2022/02/16 14:23:12;;;;;;;6.10;3.00;;;;;;;;;;5010819;28;20054;-67
2022/02/16 14:25:42;;;;;;;4.72;2.53;;;;;;;;;;4978251;28;20053;-67
2022/02/16 14:28:13;;;;;;;5.57;2.85;;;;;;;;;;4996076;28;20045;-66
2022/02/16 14:30:43;;;;;;;6.30;2.60;;;;;;;;;;5012841;28;20042;-67
2022/02/16 14:33:14;;;;;;;5.57;2.58;;;;;;;;;;5012975;28;20042;-67
2022/02/16 14:35:44;;;;;;;7.20;2.45;;;;;;;;;;4978278;28;20391;-66
2022/02/16 14:38:15;;;;;;;4.72;2.75;;;;;;;;;;4978238;28;20053;-68
2022/02/16 14:40:45;;;;;;;6.55;3.28;;;;;;;;;;4978191;28;20056;-67
2022/02/16 14:43:15;;;;;;;6.40;3.00;;;;;;;;;;5012147;28;20052;-67
2022/02/16 14:45:45;;;;;;;4.18;2.90;;;;;;;;;;5012199;28;20046;-68
2022/02/16 14:48:16;;;;;;;4.30;2.53;;;;;;;;;;5012268;28;20049;-67
2022/02/16 14:50:46;;;;;;;4.75;2.67;;;;;;;;;;4977945;28;20053;-67
2022/02/16 14:53:17;;;;;;;6.82;2.90;;;;;;;;;;5012151;28;20050;-68
2022/02/16 14:55:50;;;;;;;7.18;3.15;;;;;;;;;;4970542;28;20050;-68
2022/02/16 14:58:21;;;;;;;4.40;2.92;;;;;;;;;;4970713;28;20055;-68
2022/02/16 15:00:51;;;;;;;6.90;2.95;;;;;;;;;;4970711;28;20051;-67
2022/02/16 15:03:22;;;;;;;7.35;3.22;;;;;;;;;;4938660;28;20077;-67
2022/02/16 15:05:52;;;;;;;5.72;2.88;;;;;;;;;;4970674;28;20070;-68
2022/02/16 15:08:22;;;;;;;10.48;3.25;;;;;;;;;;4954772;28;20059;-67
2022/02/16 15:10:52;;;;;;;8.63;3.63;;;;;;;;;;4970757;28;20053;-68
2022/02/16 15:13:25;;;;;;;4.85;3.38;;;;;;;;;;4954582;28;20058;-68
2022/02/16 15:15:56;;;;;;;8.27;3.10;;;;;;;;;;4939065;28;20055;-69
2022/02/16 15:18:35;;;;;;;6.30;3.40;;;;;;;;;;4970527;28;20601;-67
2022/02/16 15:21:06;;;;;;;7.85;3.13;;;;;;;;;;4970649;28;20054;-68